Time,TemperatureF,DewpointF,PressureIn,WindDirection,WindDirectionDegrees,WindSpeedMPH,WindSpeedGustMPH,Humidity,HourlyPrecipIn,Conditions,Clouds,dailyrainin,SoftwareType,DateUTC
2013-12-16 00:00:00,11.6,3.1,29.44,NNW,338,2.0,2.2,68,0.00,,,0.00,VWS V14.01,2013-12-16 05:00:00,
2013-12-16 00:01:00,11.2,2.7,29.44,NNW,338,2.5,4.7,68,0.00,,,0.00,VWS V14.01,2013-12-16 05:01:00,
2013-12-16 00:03:00,11.2,2.7,29.44,NNW,338,1.6,2.5,68,0.00,,,0.00,VWS V14.01,2013-12-16 05:03:00,
2013-12-16 00:08:00,10.8,2.4,29.41,NNW,338,2.5,2.5,68,0.00,,,0.00,VWS V14.01,2013-12-16 05:08:00,
2013-12-16 00:13:00,10.8,2.4,29.41,NNW,338,2.2,2.2,68,0.00,,,0.00,VWS V14.01,2013-12-16 05:13:00,
2013-12-16 00:18:00,10.8,2.4,29.41,NNW,338,2.5,3.1,68,0.00,,,0.00,VWS V14.01,2013-12-16 05:18:00,
2013-12-16 00:23:00,10.3,1.9,29.44,NNW,338,2.2,2.9,68,0.00,,,0.00,VWS V14.01,2013-12-16 05:23:00,
2013-12-16 00:28:00,9.6,1.2,29.44,NNW,338,2.7,2.7,68,0.00,,,0.00,VWS V14.01,2013-12-16 05:28:00,
2013-12-16 00:30:00,9.8,1.3,29.44,NNW,338,2.0,2.7,68,0.00,,,0.00,VWS V14.01,2013-12-16 05:30:00,
2013-12-16 00:33:00,9.2,0.8,29.44,NNW,338,2.0,3.1,68,0.00,,,0.00,VWS V14.01,2013-12-16 05:33:00,
2013-12-16 00:38:00,8.7,0.3,29.44,NNW,338,3.6,3.6,68,0.00,,,0.00,VWS V14.01,2013-12-16 05:38:00,
2013-12-16 00:43:00,8.3,-0.1,29.44,NNW,338,1.6,2.9,68,0.00,,,0.00,VWS V14.01,2013-12-16 05:43:00,
2013-12-16 00:48:00,8.1,-0.2,29.44,NNW,338,2.5,2.7,68,0.00,,,0.00,VWS V14.01,2013-12-16 05:48:00,
2013-12-16 00:53:00,8.5,0.1,29.44,NNW,338,2.5,2.9,68,0.00,,,0.00,VWS V14.01,2013-12-16 05:53:00,
2013-12-16 00:58:00,8.7,0.3,29.44,NNW,338,2.9,3.1,68,0.00,,,0.00,VWS V14.01,2013-12-16 05:58:00,
2013-12-16 01:00:00,8.7,0.3,29.44,NNW,338,2.7,2.9,68,0.00,,,0.00,VWS V14.01,2013-12-16 06:00:00,
2013-12-16 01:03:00,8.7,0.3,29.44,NNW,338,2.5,2.7,68,0.00,,,0.00,VWS V14.01,2013-12-16 06:03:00,
2013-12-16 01:08:00,7.8,-0.6,29.44,NNW,338,2.0,2.7,68,0.00,,,0.00,VWS V14.01,2013-12-16 06:08:00,
2013-12-16 01:13:00,7.2,-1.1,29.44,NNW,338,1.6,2.5,68,0.00,,,0.00,VWS V14.01,2013-12-16 06:13:00,
2013-12-16 01:18:00,5.1,-3.2,29.44,NNW,338,2.9,3.6,68,0.00,,,0.00,VWS V14.01,2013-12-16 06:18:00,
2013-12-16 01:23:00,4.9,-3.3,29.44,NNW,338,2.9,3.1,68,0.00,,,0.00,VWS V14.01,2013-12-16 06:23:00,
2013-12-16 01:28:00,4.0,-4.2,29.44,NNW,338,2.0,2.9,68,0.00,,,0.00,VWS V14.01,2013-12-16 06:28:00,
2013-12-16 01:30:00,4.4,-3.8,29.44,NNW,338,2.5,2.9,68,0.00,,,0.00,VWS V14.01,2013-12-16 06:30:00,
2013-12-16 01:33:00,4.2,-4.0,29.44,NNW,338,3.4,3.4,68,0.00,,,0.00,VWS V14.01,2013-12-16 06:33:00,
2013-12-16 01:38:00,4.4,-3.8,29.44,NNW,338,2.5,3.1,68,0.00,,,0.00,VWS V14.01,2013-12-16 06:38:00,
2013-12-16 01:43:00,3.6,-4.5,29.44,NNW,338,2.5,2.5,68,0.00,,,0.00,VWS V14.01,2013-12-16 06:43:00,
2013-12-16 01:48:00,2.7,-5.4,29.44,NNW,338,2.7,2.7,68,0.00,,,0.00,VWS V14.01,2013-12-16 06:48:00,
2013-12-16 01:53:00,3.3,-4.9,29.47,NNW,338,2.7,3.4,68,0.00,,,0.00,VWS V14.01,2013-12-16 06:53:00,
2013-12-16 01:58:00,3.6,-4.5,29.47,NNW,338,2.7,2.7,68,0.00,,,0.00,VWS V14.01,2013-12-16 06:58:00,
2013-12-16 02:00:00,3.8,-4.4,29.47,NNW,338,1.6,2.9,68,0.00,,,0.00,VWS V14.01,2013-12-16 07:00:00,
2013-12-16 02:03:00,4.0,-4.2,29.47,NNW,338,3.1,3.1,68,0.00,,,0.00,VWS V14.01,2013-12-16 07:03:00,
2013-12-16 02:08:00,3.6,-4.5,29.47,NNW,338,2.9,2.9,68,0.00,,,0.00,VWS V14.01,2013-12-16 07:08:00,
2013-12-16 02:13:00,2.9,-5.2,29.47,NNW,338,3.1,3.4,68,0.00,,,0.00,VWS V14.01,2013-12-16 07:13:00,
2013-12-16 02:18:00,2.7,-5.4,29.47,NNW,338,2.7,3.1,68,0.00,,,0.00,VWS V14.01,2013-12-16 07:18:00,
2013-12-16 02:23:00,2.7,-5.4,29.47,NNW,338,2.5,3.8,68,0.00,,,0.00,VWS V14.01,2013-12-16 07:23:00,
2013-12-16 02:28:00,2.2,-5.9,29.47,NNW,338,2.7,2.7,68,0.00,,,0.00,VWS V14.01,2013-12-16 07:28:00,
2013-12-16 02:30:00,2.7,-5.4,29.47,NNW,338,2.5,2.9,68,0.00,,,0.00,VWS V14.01,2013-12-16 07:30:00,
2013-12-16 02:33:00,1.8,-6.3,29.47,NNW,338,2.2,2.2,68,0.00,,,0.00,VWS V14.01,2013-12-16 07:33:00,
2013-12-16 02:38:00,1.1,-7.0,29.47,NNW,338,2.5,2.5,68,0.00,,,0.00,VWS V14.01,2013-12-16 07:38:00,
2013-12-16 02:43:00,0.4,-7.7,29.47,NNW,338,1.3,2.0,68,0.00,,,0.00,VWS V14.01,2013-12-16 07:43:00,
2013-12-16 02:48:00,-0.3,-8.3,29.47,NNW,338,0.0,1.6,68,0.00,,,0.00,VWS V14.01,2013-12-16 07:48:00,
2013-12-16 02:53:00,-0.3,-8.3,29.50,NNW,338,1.6,2.0,68,0.00,,,0.00,VWS V14.01,2013-12-16 07:53:00,
2013-12-16 02:58:00,-1.0,-9.0,29.50,NNW,338,0.9,2.2,68,0.00,,,0.00,VWS V14.01,2013-12-16 07:58:00,
2013-12-16 03:00:00,-3.9,-11.8,29.50,NNW,338,2.5,2.5,68,0.00,,SKC,0.00,VWS V15.00,2013-12-16 08:00:00,
2013-12-16 03:03:00,-1.0,-9.0,29.50,NNW,338,0.0,1.1,68,0.00,,,0.00,VWS V14.01,2013-12-16 08:03:00,
2013-12-16 03:08:00,-1.2,-9.2,29.50,NNW,338,1.3,2.0,68,0.00,,,0.00,VWS V14.01,2013-12-16 08:08:00,
2013-12-16 03:13:00,-1.8,-9.7,29.50,NNW,338,0.0,0.0,68,0.00,,,0.00,VWS V14.01,2013-12-16 08:13:00,
2013-12-16 03:18:00,-1.9,-9.9,29.50,NNW,338,0.0,0.0,68,0.00,,,0.00,VWS V14.01,2013-12-16 08:18:00,
2013-12-16 03:24:00,-2.1,-10.1,29.50,NNW,338,0.0,0.0,68,0.00,,,0.00,VWS V14.01,2013-12-16 08:24:00,
2013-12-16 03:29:00,-1.9,-9.9,29.50,NNW,338,0.0,0.0,68,0.00,,,0.00,VWS V14.01,2013-12-16 08:29:00,
2013-12-16 03:30:00,-1.9,-9.9,29.50,NNW,338,0.0,0.0,68,0.00,,,0.00,VWS V14.01,2013-12-16 08:30:00,
2013-12-16 03:34:00,-2.3,-10.2,29.50,NNW,338,0.0,0.0,68,0.00,,,0.00,VWS V14.01,2013-12-16 08:34:00,
2013-12-16 03:39:00,-2.3,-10.2,29.50,NNW,338,0.9,0.9,68,0.00,,,0.00,VWS V14.01,2013-12-16 08:39:00,
2013-12-16 03:44:00,-2.3,-10.2,29.50,NNW,338,0.0,0.0,68,0.00,,,0.00,VWS V14.01,2013-12-16 08:44:00,
2013-12-16 03:49:00,-2.8,-10.8,29.50,NNW,338,0.0,0.0,68,0.00,,,0.00,VWS V14.01,2013-12-16 08:49:00,
2013-12-16 03:54:00,-3.7,-11.6,29.50,NNW,338,2.5,2.5,68,0.00,,,0.00,VWS V14.01,2013-12-16 08:54:00,
2013-12-16 03:59:00,-4.1,-12.0,29.50,NNW,338,1.6,2.5,68,0.00,,,0.00,VWS V14.01,2013-12-16 08:59:00,
2013-12-16 04:00:00,-3.9,-11.8,29.50,NNW,338,2.5,2.5,68,0.00,,,0.00,VWS V14.01,2013-12-16 09:00:00,
2013-12-16 04:04:00,-3.9,-11.8,29.50,NNW,338,0.0,0.0,68,0.00,,,0.00,VWS V14.01,2013-12-16 09:04:00,
2013-12-16 04:09:00,-3.6,-11.5,29.50,NNW,338,0.0,0.0,68,0.00,,,0.00,VWS V14.01,2013-12-16 09:09:00,
2013-12-16 04:14:00,-4.1,-12.0,29.50,NNW,338,1.1,2.7,68,0.00,,,0.00,VWS V14.01,2013-12-16 09:14:00,
2013-12-16 04:19:00,-4.3,-12.1,29.50,NNW,338,2.0,2.0,68,0.00,,,0.00,VWS V14.01,2013-12-16 09:19:00,
2013-12-16 04:24:00,-3.7,-11.6,29.50,NNW,338,0.0,0.0,68,0.00,,,0.00,VWS V14.01,2013-12-16 09:24:00,
2013-12-16 04:29:00,-3.7,-11.6,29.50,NNW,338,2.5,2.5,68,0.00,,,0.00,VWS V14.01,2013-12-16 09:29:00,
2013-12-16 04:30:00,-3.7,-11.6,29.50,NNW,338,1.1,1.6,68,0.00,,,0.00,VWS V14.01,2013-12-16 09:30:00,
2013-12-16 04:34:00,-4.5,-12.3,29.50,NNW,338,2.7,2.7,68,0.00,,,0.00,VWS V14.01,2013-12-16 09:34:00,
2013-12-16 04:39:00,-5.4,-13.2,29.50,NNW,338,2.7,3.1,68,0.00,,,0.00,VWS V14.01,2013-12-16 09:39:00,
2013-12-16 04:43:00,-5.7,-13.5,29.50,NNW,338,2.0,2.7,68,0.00,,,0.00,VWS V14.01,2013-12-16 09:43:00,
2013-12-16 04:48:00,-5.4,-13.2,29.50,NNW,338,2.7,2.7,68,0.00,,,0.00,VWS V14.01,2013-12-16 09:48:00,
2013-12-16 04:53:00,-4.8,-12.7,29.47,NNW,338,1.6,2.0,68,0.00,,,0.00,VWS V14.01,2013-12-16 09:53:00,
2013-12-16 04:59:00,-5.2,-13.0,29.47,NNW,338,2.5,2.5,68,0.00,,,0.00,VWS V14.01,2013-12-16 09:59:00,
2013-12-16 05:00:00,-5.0,-12.8,29.47,NNW,338,1.6,2.0,68,0.00,,,0.00,VWS V14.01,2013-12-16 10:00:00,
2013-12-16 05:04:00,-5.7,-13.5,29.47,NNW,338,2.7,3.4,68,0.00,,,0.00,VWS V14.01,2013-12-16 10:04:00,
2013-12-16 05:09:00,-6.1,-13.9,29.47,NNW,338,1.6,2.5,68,0.00,,,0.00,VWS V14.01,2013-12-16 10:09:00,
2013-12-16 05:14:00,-5.7,-13.5,29.47,NNW,338,0.0,0.0,68,0.00,,,0.00,VWS V14.01,2013-12-16 10:14:00,
2013-12-16 05:19:00,-7.0,-14.7,29.47,NNW,338,1.6,2.5,68,0.00,,,0.00,VWS V14.01,2013-12-16 10:19:00,
2013-12-16 05:24:00,-7.2,-14.9,29.50,NNW,338,3.4,3.4,68,0.00,,,0.00,VWS V14.01,2013-12-16 10:24:00,
2013-12-16 05:29:00,-7.7,-15.4,29.50,NNW,338,2.9,3.4,68,0.00,,,0.00,VWS V14.01,2013-12-16 10:29:00,
2013-12-16 05:30:00,-7.3,-15.1,29.50,NNW,338,2.5,2.9,68,0.00,,,0.00,VWS V14.01,2013-12-16 10:30:00,
2013-12-16 05:34:00,-7.3,-15.1,29.50,NNW,338,2.7,2.7,68,0.00,,,0.00,VWS V14.01,2013-12-16 10:34:00,
2013-12-16 05:39:00,-6.4,-14.2,29.50,NNW,338,2.2,2.9,68,0.00,,,0.00,VWS V14.01,2013-12-16 10:39:00,
2013-12-16 05:44:00,-6.6,-14.4,29.50,NNW,338,2.7,2.9,68,0.00,,,0.00,VWS V14.01,2013-12-16 10:44:00,
2013-12-16 05:49:00,-7.2,-14.9,29.53,NNW,338,2.5,2.9,68,0.00,,,0.00,VWS V14.01,2013-12-16 10:49:00,
2013-12-16 05:54:00,-8.6,-16.3,29.53,NNW,338,2.5,2.5,68,0.00,,,0.00,VWS V14.01,2013-12-16 10:54:00,
2013-12-16 05:59:00,-8.1,-15.8,29.53,NNW,338,3.1,4.0,68,0.00,,,0.00,VWS V14.01,2013-12-16 10:59:00,
2013-12-16 06:00:00,-7.9,-15.6,29.53,NNW,338,2.7,3.1,68,0.00,,,0.00,VWS V14.01,2013-12-16 11:00:00,
2013-12-16 06:04:00,-8.2,-15.9,29.53,NNW,338,2.5,3.6,68,0.00,,,0.00,VWS V14.01,2013-12-16 11:04:00,
2013-12-16 06:09:00,-8.2,-15.9,29.53,NNW,338,3.6,3.6,68,0.00,,,0.00,VWS V14.01,2013-12-16 11:09:00,
2013-12-16 06:14:00,-9.3,-17.0,29.53,NNW,338,2.5,2.5,68,0.00,,,0.00,VWS V14.01,2013-12-16 11:14:00,
2013-12-16 06:19:00,-9.7,-17.3,29.56,NNW,338,3.1,3.1,68,0.00,,,0.00,VWS V14.01,2013-12-16 11:19:00,
2013-12-16 06:24:00,-10.2,-17.9,29.56,NNW,338,2.0,2.0,68,0.00,,,0.00,VWS V14.01,2013-12-16 11:24:00,
2013-12-16 06:29:00,-9.3,-17.0,29.56,NNW,338,2.7,4.0,68,0.00,,,0.00,VWS V14.01,2013-12-16 11:29:00,
2013-12-16 06:30:00,-9.3,-17.0,29.56,NNW,338,3.1,4.0,68,0.00,,,0.00,VWS V14.01,2013-12-16 11:30:00,
2013-12-16 06:34:00,-8.2,-15.9,29.56,NNW,338,3.1,3.4,68,0.00,,,0.00,VWS V14.01,2013-12-16 11:34:00,
2013-12-16 06:39:00,-7.7,-15.4,29.56,NNW,338,2.9,3.6,68,0.00,,,0.00,VWS V14.01,2013-12-16 11:39:00,
2013-12-16 06:44:00,-7.5,-15.3,29.56,NNW,338,2.9,4.0,68,0.00,,,0.00,VWS V14.01,2013-12-16 11:44:00,
2013-12-16 06:49:00,-7.7,-15.4,29.56,NNW,338,1.3,2.5,68,0.00,,,0.00,VWS V14.01,2013-12-16 11:49:00,
2013-12-16 06:54:00,-8.2,-15.9,29.56,NNW,338,0.0,0.0,68,0.00,,,0.00,VWS V14.01,2013-12-16 11:54:00,
2013-12-16 06:59:00,-9.1,-16.8,29.56,NNW,338,2.2,2.2,68,0.00,,,0.00,VWS V14.01,2013-12-16 11:59:00,
2013-12-16 07:00:00,-8.2,-15.9,29.56,NNW,338,2.2,2.2,68,0.00,,SKC,0.00,VWS V15.00,2013-12-16 12:00:00,
2013-12-16 07:04:00,-9.3,-17.0,29.56,NNW,338,1.6,2.5,68,0.00,,,0.00,VWS V14.01,2013-12-16 12:04:00,
2013-12-16 07:09:00,-9.1,-16.8,29.56,NNW,338,4.0,4.3,68,0.00,,,0.00,VWS V14.01,2013-12-16 12:09:00,
2013-12-16 07:14:00,-9.7,-17.3,29.56,NNW,338,2.7,4.0,68,0.00,,,0.00,VWS V14.01,2013-12-16 12:14:00,
2013-12-16 07:19:00,-9.3,-17.0,29.56,NNW,338,3.1,3.1,68,0.00,,,0.00,VWS V14.01,2013-12-16 12:19:00,
2013-12-16 07:24:00,-10.0,-17.7,29.56,NNW,338,1.6,2.2,68,0.00,,,0.00,VWS V14.01,2013-12-16 12:24:00,
2013-12-16 07:29:00,-9.5,-17.2,29.56,NNW,338,2.0,2.5,68,0.00,,,0.00,VWS V14.01,2013-12-16 12:29:00,
2013-12-16 07:30:00,-9.7,-17.3,29.56,NNW,338,1.6,2.0,68,0.00,,,0.00,VWS V14.01,2013-12-16 12:30:00,
2013-12-16 07:35:00,-9.5,-17.2,29.59,NNW,338,2.5,3.4,68,0.00,,,0.00,VWS V14.01,2013-12-16 12:35:00,
2013-12-16 07:40:00,-9.3,-17.0,29.59,NNW,338,2.9,3.6,68,0.00,,,0.00,VWS V14.01,2013-12-16 12:40:00,
2013-12-16 07:45:00,-8.8,-16.5,29.59,NNW,338,2.7,4.0,68,0.00,,,0.00,VWS V14.01,2013-12-16 12:45:00,
2013-12-16 07:50:00,-8.6,-16.3,29.59,NNW,338,2.0,2.9,68,0.00,,,0.00,VWS V14.01,2013-12-16 12:50:00,
2013-12-16 07:55:00,-8.4,-16.1,29.56,NNW,338,2.0,2.0,68,0.00,,,0.00,VWS V14.01,2013-12-16 12:55:00,
2013-12-16 08:00:00,-8.4,-16.1,29.56,NNW,338,2.7,3.1,68,0.00,,,0.00,VWS V14.01,2013-12-16 13:00:00,
2013-12-16 08:05:00,-8.8,-16.5,29.56,NNW,338,1.6,2.7,68,0.00,,,0.00,VWS V14.01,2013-12-16 13:05:00,
2013-12-16 08:10:00,-7.7,-15.4,29.56,NNW,338,1.1,1.1,68,0.00,,,0.00,VWS V14.01,2013-12-16 13:10:00,
2013-12-16 08:15:00,-7.9,-15.6,29.56,NNW,338,0.0,2.2,68,0.00,,,0.00,VWS V14.01,2013-12-16 13:15:00,
2013-12-16 08:20:00,-7.5,-15.3,29.56,NNW,338,1.3,1.3,68,0.00,,,0.00,VWS V14.01,2013-12-16 13:20:00,
2013-12-16 08:25:00,-7.0,-14.7,29.59,NNW,338,0.0,2.0,68,0.00,,,0.00,VWS V14.01,2013-12-16 13:25:00,
2013-12-16 08:30:00,-5.9,-13.7,29.59,NNW,338,0.0,1.6,68,0.00,,,0.00,VWS V14.01,2013-12-16 13:30:00,
2013-12-16 08:35:00,-5.4,-13.2,29.59,NNW,338,1.6,2.2,68,0.00,,,0.00,VWS V14.01,2013-12-16 13:35:00,
2013-12-16 08:40:00,-4.5,-12.3,29.59,NNW,338,2.7,2.7,68,0.00,,,0.00,VWS V14.01,2013-12-16 13:40:00,
2013-12-16 08:45:00,-4.1,-12.0,29.59,NNW,338,0.0,1.6,68,0.00,,,0.00,VWS V14.01,2013-12-16 13:45:00,
2013-12-16 08:50:00,-3.2,-11.1,29.59,NNW,338,2.2,2.2,68,0.00,,,0.00,VWS V14.01,2013-12-16 13:50:00,
2013-12-16 08:55:00,-2.1,-10.1,29.59,NNW,338,1.3,2.9,68,0.00,,,0.00,VWS V14.01,2013-12-16 13:55:00,
2013-12-16 09:00:00,-1.8,-9.7,29.59,NNW,338,1.3,1.6,68,0.00,,,0.00,VWS V14.01,2013-12-16 14:00:00,
2013-12-16 09:05:00,0.0,-8.0,29.62,NNW,338,0.0,0.0,68,0.00,,,0.00,VWS V14.01,2013-12-16 14:05:00,
2013-12-16 09:10:00,2.0,-6.1,29.62,NNW,338,0.0,0.9,68,0.00,,,0.00,VWS V14.01,2013-12-16 14:10:00,
2013-12-16 09:15:00,3.5,-4.7,29.62,NNW,338,0.0,1.3,68,0.00,,,0.00,VWS V14.01,2013-12-16 14:15:00,
2013-12-16 09:20:00,5.1,-3.2,29.62,NNW,338,0.0,1.6,68,0.00,,,0.00,VWS V14.01,2013-12-16 14:20:00,
2013-12-16 09:25:00,8.7,0.3,29.62,NNW,338,1.6,2.7,68,0.00,,,0.00,VWS V14.01,2013-12-16 14:25:00,
2013-12-16 09:30:00,12.3,3.8,29.62,NNW,338,1.6,3.8,68,0.00,,,0.00,VWS V14.01,2013-12-16 14:30:00,
2013-12-16 09:35:00,14.3,10.3,29.62,NNW,338,2.5,3.1,84,0.00,,,0.00,VWS V14.01,2013-12-16 14:35:00,
2013-12-16 09:40:00,16.4,11.9,29.62,NW,315,4.0,5.4,82,0.00,,,0.00,VWS V14.01,2013-12-16 14:40:00,
2013-12-16 09:45:00,18.0,9.9,29.62,NNW,338,3.6,5.4,70,0.00,,,0.00,VWS V14.01,2013-12-16 14:45:00,
2013-12-16 09:50:00,19.3,6.2,29.62,NNW,338,5.8,8.7,56,0.00,,,0.00,VWS V14.01,2013-12-16 14:50:00,
2013-12-16 09:55:00,20.2,4.1,29.62,NW,315,5.6,7.8,49,0.00,,,0.00,VWS V14.01,2013-12-16 14:55:00,
2013-12-16 10:00:00,20.6,2.6,29.62,WSW,248,7.8,9.4,45,0.00,,,0.00,VWS V14.01,2013-12-16 15:00:00,
2013-12-16 10:05:00,20.6,2.1,29.62,NNW,338,12.1,12.1,44,0.00,,,0.00,VWS V14.01,2013-12-16 15:05:00,
2013-12-16 10:10:00,20.6,1.6,29.62,NW,315,10.1,12.1,43,0.00,,,0.00,VWS V14.01,2013-12-16 15:10:00,
2013-12-16 10:15:00,20.4,1.5,29.62,WNW,292,6.5,10.5,43,0.00,,,0.00,VWS V14.01,2013-12-16 15:15:00,
2013-12-16 10:20:00,20.2,1.3,29.62,NW,315,8.1,10.7,43,0.00,,,0.00,VWS V14.01,2013-12-16 15:20:00,
2013-12-16 10:25:00,20.7,1.3,29.62,WNW,292,7.2,12.3,42,0.00,,,0.00,VWS V14.01,2013-12-16 15:25:00,
2013-12-16 10:30:00,21.5,1.9,29.62,WNW,292,7.8,10.1,42,0.00,,,0.00,VWS V14.01,2013-12-16 15:30:00,
2013-12-16 10:35:00,21.8,1.8,29.62,NNW,338,8.7,8.7,41,0.00,,,0.00,VWS V14.01,2013-12-16 15:35:00,
2013-12-16 10:40:00,21.6,0.0,29.62,NNW,338,11.4,11.4,38,0.00,,,0.00,VWS V14.01,2013-12-16 15:40:00,
2013-12-16 10:45:00,21.3,-0.4,29.62,NNW,338,12.1,12.1,38,0.00,,,0.00,VWS V14.01,2013-12-16 15:45:00,
2013-12-16 10:50:00,21.1,-1.1,29.62,NNW,338,10.5,17.5,37,0.00,,,0.00,VWS V14.01,2013-12-16 15:50:00,
2013-12-16 10:55:00,22.0,-0.3,29.62,NW,315,9.6,13.2,37,0.00,,,0.00,VWS V14.01,2013-12-16 15:55:00,
2013-12-16 11:00:00,22.7,-0.2,29.62,NW,315,10.7,10.7,36,0.00,,,0.00,VWS V14.01,2013-12-16 16:00:00,
2013-12-16 11:05:00,23.3,-0.3,29.62,NW,315,10.7,13.2,35,0.00,,,0.00,VWS V14.01,2013-12-16 16:05:00,
2013-12-16 11:10:00,23.8,0.8,29.62,NNW,338,6.7,8.5,36,0.00,,,0.00,VWS V14.01,2013-12-16 16:10:00,
2013-12-16 11:15:00,23.8,0.2,29.62,NNW,338,13.9,13.9,35,0.00,,,0.00,VWS V14.01,2013-12-16 16:15:00,
2013-12-16 11:20:00,23.8,0.2,29.62,NW,315,8.5,11.0,35,0.00,,,0.00,VWS V14.01,2013-12-16 16:20:00,
2013-12-16 11:25:00,24.9,1.1,29.62,NW,315,4.9,6.0,35,0.00,,,0.00,VWS V14.01,2013-12-16 16:25:00,
2013-12-16 11:30:00,24.2,-0.1,29.62,NW,315,10.5,12.8,34,0.00,,,0.00,VWS V14.01,2013-12-16 16:30:00,
2013-12-16 11:35:00,24.3,0.0,29.62,NNW,338,7.6,10.3,34,0.00,,,0.00,VWS V14.01,2013-12-16 16:35:00,
2013-12-16 11:40:00,24.2,-0.8,29.62,NNW,338,10.1,10.5,33,0.00,,,0.00,VWS V14.01,2013-12-16 16:40:00,
2013-12-16 11:45:00,24.0,-0.9,29.62,NNW,338,9.6,17.2,33,0.00,,,0.00,VWS V14.01,2013-12-16 16:45:00,
2013-12-16 11:50:00,23.6,-0.6,29.62,NNW,338,12.3,14.5,34,0.00,,,0.00,VWS V14.01,2013-12-16 16:50:00,
2013-12-16 11:55:00,24.2,-0.8,29.62,NW,315,10.3,11.0,33,0.00,,,0.00,VWS V14.01,2013-12-16 16:55:00,
2013-12-16 12:00:00,24.3,-0.6,29.62,West,270,10.1,11.9,33,0.00,,,0.00,VWS V14.01,2013-12-16 17:00:00,
2013-12-16 12:05:00,25.4,0.3,29.62,NW,315,6.3,7.8,33,0.00,,,0.00,VWS V14.01,2013-12-16 17:05:00,
2013-12-16 12:10:00,25.1,0.0,29.62,NNW,338,6.3,15.2,33,0.00,,,0.00,VWS V14.01,2013-12-16 17:10:00,
2013-12-16 12:15:00,24.3,-1.3,29.62,NNW,338,8.5,12.8,32,0.00,,,0.00,VWS V14.01,2013-12-16 17:15:00,
2013-12-16 12:20:00,23.6,-1.9,29.62,NW,315,10.3,14.8,32,0.00,,,0.00,VWS V14.01,2013-12-16 17:20:00,
2013-12-16 12:25:00,23.3,-2.2,29.62,NW,315,11.0,16.1,32,0.00,,,0.00,VWS V14.01,2013-12-16 17:25:00,
2013-12-16 12:30:00,23.3,-1.6,29.62,NW,315,6.5,11.9,33,0.00,,,0.00,VWS V14.01,2013-12-16 17:30:00,
2013-12-16 12:35:00,23.6,-1.2,29.62,NW,315,4.3,8.5,33,0.00,,,0.00,VWS V14.01,2013-12-16 17:35:00,
2013-12-16 12:40:00,23.4,-1.4,29.62,NW,315,4.0,7.6,33,0.00,,,0.00,VWS V14.01,2013-12-16 17:40:00,
2013-12-16 12:45:00,22.7,-2.7,29.62,NW,315,7.6,11.9,32,0.00,,,0.00,VWS V14.01,2013-12-16 17:45:00,
2013-12-16 12:50:00,21.5,-3.8,29.62,NNW,338,7.6,11.2,32,0.00,,,0.00,VWS V14.01,2013-12-16 17:50:00,
2013-12-16 12:55:00,22.0,-3.3,29.62,NNW,338,6.7,8.5,32,0.00,,,0.00,VWS V14.01,2013-12-16 17:55:00,
2013-12-16 13:00:00,21.5,-3.8,29.62,NW,315,11.0,15.4,32,0.00,,,0.00,VWS V14.01,2013-12-16 18:00:00,
2013-12-16 13:05:00,20.9,-5.6,29.62,NNW,338,12.8,14.1,30,0.00,,,0.00,VWS V14.01,2013-12-16 18:05:00,
2013-12-16 13:10:00,20.7,-5.8,29.62,NW,315,8.7,15.4,30,0.00,,,0.00,VWS V14.01,2013-12-16 18:10:00,
2013-12-16 13:15:00,20.4,-6.1,29.62,NNW,338,13.0,15.9,30,0.00,,,0.00,VWS V14.01,2013-12-16 18:15:00,
2013-12-16 13:20:00,20.4,-6.1,29.62,NNW,338,13.0,17.5,30,0.00,,,0.00,VWS V14.01,2013-12-16 18:20:00,
2013-12-16 13:25:00,20.6,-4.6,29.62,NNW,338,11.4,14.3,32,0.00,,,0.00,VWS V14.01,2013-12-16 18:25:00,
2013-12-16 13:30:00,20.6,-5.9,29.62,WNW,292,12.8,15.2,30,0.00,,,0.00,VWS V14.01,2013-12-16 18:30:00,
2013-12-16 13:35:00,20.4,-4.8,29.62,NW,315,12.5,12.5,32,0.00,,,0.00,VWS V14.01,2013-12-16 18:35:00,
2013-12-16 13:40:00,20.2,-4.9,29.62,NNW,338,12.5,15.2,32,0.00,,,0.00,VWS V14.01,2013-12-16 18:40:00,
2013-12-16 13:45:00,20.6,-4.6,29.62,NNW,338,8.7,12.5,32,0.00,,,0.00,VWS V14.01,2013-12-16 18:45:00,
2013-12-16 13:50:00,20.9,-4.3,29.62,NNW,338,7.8,10.3,32,0.00,,,0.00,VWS V14.01,2013-12-16 18:50:00,
2013-12-16 13:55:00,21.1,-4.1,29.62,NNW,338,7.4,13.0,32,0.00,,,0.00,VWS V14.01,2013-12-16 18:55:00,
2013-12-16 14:00:00,21.8,-3.5,29.62,NNW,338,4.9,7.8,32,0.00,,,0.00,VWS V14.01,2013-12-16 19:00:00,
2013-12-16 14:05:00,21.6,-3.7,29.62,NW,315,5.8,7.6,32,0.00,,,0.00,VWS V14.01,2013-12-16 19:05:00,
2013-12-16 14:11:00,20.7,-4.4,29.62,NNW,338,5.4,11.0,32,0.00,,,0.00,VWS V14.01,2013-12-16 19:11:00,
2013-12-16 14:16:00,19.8,-5.2,29.62,NNW,338,8.5,13.2,32,0.00,,,0.00,VWS V14.01,2013-12-16 19:16:00,
2013-12-16 14:21:00,19.5,-5.6,29.65,NW,315,10.1,17.9,32,0.00,,,0.00,VWS V14.01,2013-12-16 19:21:00,
2013-12-16 14:26:00,19.3,-5.7,29.65,NW,315,8.1,14.8,32,0.00,,,0.00,VWS V14.01,2013-12-16 19:26:00,
2013-12-16 14:30:00,19.3,-5.7,29.65,NNW,338,8.7,9.8,32,0.00,,,0.00,VWS V14.01,2013-12-16 19:30:00,
2013-12-16 14:31:00,19.3,-5.7,29.65,NW,315,11.0,11.0,32,0.00,,,0.00,VWS V14.01,2013-12-16 19:31:00,
2013-12-16 14:36:00,19.3,-5.7,29.65,NNW,338,12.8,15.2,32,0.00,,,0.00,VWS V14.01,2013-12-16 19:36:00,
2013-12-16 14:41:00,19.3,-5.7,29.65,WNW,292,15.2,17.2,32,0.00,,,0.00,VWS V14.01,2013-12-16 19:41:00,
2013-12-16 14:46:00,19.1,-7.2,29.65,NNW,338,9.6,16.3,30,0.00,,,0.00,VWS V14.01,2013-12-16 19:46:00,
2013-12-16 14:51:00,18.8,-7.5,29.68,NW,315,8.5,13.2,30,0.00,,,0.00,VWS V14.01,2013-12-16 19:51:00,
2013-12-16 14:56:00,18.4,-7.8,29.68,NNW,338,13.0,15.2,30,0.00,,,0.00,VWS V14.01,2013-12-16 19:56:00,
2013-12-16 15:01:00,18.2,-8.0,29.68,NNW,338,8.7,19.5,30,0.00,,,0.00,VWS V14.01,2013-12-16 20:01:00,
2013-12-16 15:06:00,17.7,-8.5,29.68,NNW,338,12.1,15.7,30,0.00,,,0.00,VWS V14.01,2013-12-16 20:06:00,
2013-12-16 15:11:00,17.3,-8.8,29.68,NNW,338,10.3,16.1,30,0.00,,,0.00,VWS V14.01,2013-12-16 20:11:00,
2013-12-16 15:16:00,17.1,-8.9,29.68,NW,315,11.0,12.5,30,0.00,,,0.00,VWS V14.01,2013-12-16 20:16:00,
2013-12-16 15:21:00,16.8,-9.3,29.68,NNW,338,5.4,6.3,30,0.00,,,0.00,VWS V14.01,2013-12-16 20:21:00,
2013-12-16 15:26:00,17.0,-9.1,29.68,NW,315,8.5,10.7,30,0.00,,,0.00,VWS V14.01,2013-12-16 20:26:00,
2013-12-16 15:30:00,16.6,-8.8,29.68,NNW,338,8.7,12.5,31,0.00,,,0.00,VWS V14.01,2013-12-16 20:30:00,
2013-12-16 15:31:00,16.4,-8.9,29.68,NNW,338,10.5,15.4,31,0.00,,,0.00,VWS V14.01,2013-12-16 20:31:00,
2013-12-16 15:36:00,16.1,-8.0,29.68,NW,315,15.2,19.2,33,0.00,,,0.00,VWS V14.01,2013-12-16 20:36:00,
2013-12-16 15:41:00,16.1,-9.2,29.68,NNW,338,17.0,17.0,31,0.00,,,0.00,VWS V14.01,2013-12-16 20:41:00,
2013-12-16 15:46:00,16.1,-9.2,29.68,NNW,338,7.4,13.0,31,0.00,,,0.00,VWS V14.01,2013-12-16 20:46:00,
2013-12-16 15:51:00,15.7,-8.3,29.71,NNW,338,5.4,8.5,33,0.00,,,0.00,VWS V14.01,2013-12-16 20:51:00,
2013-12-16 15:56:00,15.5,-8.4,29.71,NNW,338,9.8,9.8,33,0.00,,,0.00,VWS V14.01,2013-12-16 20:56:00,
2013-12-16 16:00:00,11.9,-10.5,29.76,NNW,338,4.9,5.8,35,0.00,,SKC,0.00,VWS V15.00,2013-12-16 21:00:00,
2013-12-16 16:01:00,15.0,-8.3,29.71,NNW,338,5.6,5.6,34,0.00,,,0.00,VWS V14.01,2013-12-16 21:01:00,
2013-12-16 16:06:00,14.4,-8.8,29.74,NNW,338,9.0,9.0,34,0.00,,,0.00,VWS V14.01,2013-12-16 21:06:00,
2013-12-16 16:11:00,14.4,-8.8,29.74,NNW,338,8.7,10.3,34,0.00,,,0.00,VWS V14.01,2013-12-16 21:11:00,
2013-12-16 16:16:00,14.1,-9.1,29.74,NW,315,9.8,9.8,34,0.00,,,0.00,VWS V14.01,2013-12-16 21:16:00,
2013-12-16 16:21:00,13.7,-9.4,29.74,NNW,338,8.7,10.7,34,0.00,,,0.00,VWS V14.01,2013-12-16 21:21:00,
2013-12-16 16:26:00,13.5,-9.0,29.74,NNW,338,6.3,10.7,35,0.00,,,0.00,VWS V14.01,2013-12-16 21:26:00,
2013-12-16 16:30:00,13.4,-9.2,29.74,NNW,338,8.5,8.5,35,0.00,,,0.00,VWS V14.01,2013-12-16 21:30:00,
2013-12-16 16:31:00,13.2,-9.3,29.74,NNW,338,4.3,6.3,35,0.00,,,0.00,VWS V14.01,2013-12-16 21:31:00,
2013-12-16 16:36:00,13.2,-9.3,29.71,WNW,292,7.6,7.6,35,0.00,,,0.00,VWS V14.01,2013-12-16 21:36:00,
2013-12-16 16:41:00,12.8,-9.7,29.71,NW,315,4.9,9.6,35,0.00,,,0.00,VWS V14.01,2013-12-16 21:41:00,
2013-12-16 16:46:00,12.6,-9.8,29.71,NNW,338,4.0,7.6,35,0.00,,,0.00,VWS V14.01,2013-12-16 21:46:00,
2013-12-16 16:51:00,12.3,-10.1,29.76,NNE,22,4.9,10.1,35,0.00,,,0.00,VWS V14.01,2013-12-16 21:51:00,
2013-12-16 16:56:00,12.3,-10.1,29.76,WNW,292,8.7,12.3,35,0.00,,,0.00,VWS V14.01,2013-12-16 21:56:00,
2013-12-16 17:00:00,11.9,-10.5,29.76,NNW,338,4.9,5.8,35,0.00,,,0.00,VWS V14.01,2013-12-16 22:00:00,
2013-12-16 17:01:00,11.9,-10.5,29.76,NNW,338,5.6,10.1,35,0.00,,,0.00,VWS V14.01,2013-12-16 22:01:00,
2013-12-16 17:06:00,11.7,-10.6,29.79,NNW,338,4.3,6.0,35,0.00,,,0.00,VWS V14.01,2013-12-16 22:06:00,
2013-12-16 17:11:00,11.2,-11.1,29.79,NNW,338,4.9,6.0,35,0.00,,,0.00,VWS V14.01,2013-12-16 22:11:00,
2013-12-16 17:16:00,11.0,-11.3,29.79,NNW,338,6.0,8.1,35,0.00,,,0.00,VWS V14.01,2013-12-16 22:16:00,
2013-12-16 17:21:00,10.8,-11.4,29.79,NNW,338,4.0,5.6,35,0.00,,,0.00,VWS V14.01,2013-12-16 22:21:00,
2013-12-16 17:26:00,10.7,-11.6,29.79,NNW,338,2.2,4.3,35,0.00,,,0.00,VWS V14.01,2013-12-16 22:26:00,
2013-12-16 17:30:00,10.5,-11.8,29.80,NNW,338,3.6,4.5,35,0.00,,,0.00,VWS V14.01,2013-12-16 22:30:00,
2013-12-16 17:31:00,10.1,-12.1,29.79,NNW,338,3.6,3.6,35,0.00,,,0.00,VWS V14.01,2013-12-16 22:31:00,
2013-12-16 17:36:00,9.8,-12.4,29.79,NNW,338,4.3,4.3,35,0.00,,,0.00,VWS V14.01,2013-12-16 22:36:00,
2013-12-16 17:41:00,9.4,-12.7,29.79,NNW,338,4.3,5.4,35,0.00,,,0.00,VWS V14.01,2013-12-16 22:41:00,
2013-12-16 17:46:00,9.0,-13.0,29.79,NNW,338,7.6,7.6,35,0.00,,,0.00,VWS V14.01,2013-12-16 22:46:00,
2013-12-16 17:51:00,8.9,-13.2,29.79,NNW,338,3.4,4.0,35,0.00,,,0.00,VWS V14.01,2013-12-16 22:51:00,
2013-12-16 17:56:00,9.0,-13.0,29.79,NNW,338,2.9,4.0,35,0.00,,,0.00,VWS V14.01,2013-12-16 22:56:00,
2013-12-16 18:01:00,8.5,-13.5,29.79,NNW,338,3.4,3.6,35,0.00,,,0.00,VWS V14.01,2013-12-16 23:01:00,
2013-12-16 18:06:00,8.1,-13.8,29.82,NNW,338,3.6,4.9,35,0.00,,,0.00,VWS V14.01,2013-12-16 23:06:00,
2013-12-16 18:11:00,7.2,-14.6,29.82,NNW,338,3.1,3.1,35,0.00,,,0.00,VWS V14.01,2013-12-16 23:11:00,
2013-12-16 18:16:00,7.1,-14.8,29.82,NNW,338,2.5,4.7,35,0.00,,,0.00,VWS V14.01,2013-12-16 23:16:00,
2013-12-16 18:21:00,7.4,-14.5,29.82,NNW,338,3.4,3.4,35,0.00,,,0.00,VWS V14.01,2013-12-16 23:21:00,
2013-12-16 18:26:00,7.2,-14.6,29.82,NNW,338,2.7,4.0,35,0.00,,,0.00,VWS V14.01,2013-12-16 23:26:00,
2013-12-16 18:30:00,6.7,-15.1,29.82,NNW,338,3.1,3.4,35,0.00,,,0.00,VWS V14.01,2013-12-16 23:30:00,
2013-12-16 18:31:00,6.7,-15.1,29.82,NNW,338,6.0,6.0,35,0.00,,,0.00,VWS V14.01,2013-12-16 23:31:00,
2013-12-16 18:36:00,7.1,-14.8,29.82,NW,315,7.6,7.6,35,0.00,,,0.00,VWS V14.01,2013-12-16 23:36:00,
2013-12-16 18:41:00,7.1,-14.8,29.82,NNW,338,6.5,7.8,35,0.00,,,0.00,VWS V14.01,2013-12-16 23:41:00,
2013-12-16 18:46:00,7.6,-14.3,29.82,NNW,338,5.4,10.3,35,0.00,,,0.00,VWS V14.01,2013-12-16 23:46:00,
2013-12-16 18:51:00,7.6,-14.3,29.85,NNW,338,5.6,9.2,35,0.00,,,0.00,VWS V14.01,2013-12-16 23:51:00,
2013-12-16 18:56:00,7.6,-14.3,29.85,NNW,338,3.6,6.3,35,0.00,,,0.00,VWS V14.01,2013-12-16 23:56:00,
2013-12-16 19:00:00,7.6,-14.3,29.85,NNW,338,8.5,9.4,35,0.00,,,0.00,VWS V14.01,2013-12-17 00:00:00,
2013-12-16 19:01:00,7.4,-14.5,29.85,WNW,292,13.0,13.0,35,0.00,,,0.00,VWS V14.01,2013-12-17 00:01:00,
2013-12-16 19:06:00,7.6,-14.3,29.85,NNW,338,10.7,12.3,35,0.00,,,0.00,VWS V14.01,2013-12-17 00:06:00,
2013-12-16 19:11:00,7.6,-14.3,29.85,NNW,338,6.3,12.8,35,0.00,,,0.00,VWS V14.01,2013-12-17 00:11:00,
2013-12-16 19:16:00,7.6,-14.3,29.85,NNW,338,7.8,10.5,35,0.00,,,0.00,VWS V14.01,2013-12-17 00:16:00,
2013-12-16 19:21:00,7.4,-14.5,29.85,NW,315,8.7,13.2,35,0.00,,,0.00,VWS V14.01,2013-12-17 00:21:00,
2013-12-16 19:26:00,7.2,-14.6,29.85,NNW,338,8.5,8.7,35,0.00,,,0.00,VWS V14.01,2013-12-17 00:26:00,
2013-12-16 19:30:00,7.2,-14.6,29.85,WNW,292,10.1,12.3,35,0.00,,,0.00,VWS V14.01,2013-12-17 00:30:00,
2013-12-16 19:31:00,7.1,-14.8,29.85,NNW,338,5.8,12.3,35,0.00,,,0.00,VWS V14.01,2013-12-17 00:31:00,
2013-12-16 19:36:00,6.9,-15.0,29.85,NNW,338,5.8,7.8,35,0.00,,,0.00,VWS V14.01,2013-12-17 00:36:00,
2013-12-16 19:41:00,6.5,-15.3,29.85,NNW,338,9.8,9.8,35,0.00,,,0.00,VWS V14.01,2013-12-17 00:41:00,
2013-12-16 19:46:00,6.5,-15.3,29.85,NNW,338,6.5,7.4,35,0.00,,,0.00,VWS V14.01,2013-12-17 00:46:00,
2013-12-16 19:51:00,6.5,-15.3,29.85,NNW,338,7.8,7.8,35,0.00,,,0.00,VWS V14.01,2013-12-17 00:51:00,
2013-12-16 19:56:00,6.3,-15.5,29.85,NNW,338,5.6,6.3,35,0.00,,,0.00,VWS V14.01,2013-12-17 00:56:00,
2013-12-16 20:00:00,6.3,-15.5,29.85,NNW,338,7.6,7.6,35,0.00,,,0.00,VWS V14.01,2013-12-17 01:00:00,
2013-12-16 20:01:00,6.2,-15.6,29.85,NNW,338,4.7,6.3,35,0.00,,,0.00,VWS V14.01,2013-12-17 01:01:00,
2013-12-16 20:06:00,5.8,-15.9,29.85,WNW,292,5.8,5.8,35,0.00,,,0.00,VWS V14.01,2013-12-17 01:06:00,
2013-12-16 20:11:00,5.4,-16.3,29.85,NNW,338,2.5,4.9,35,0.00,,,0.00,VWS V14.01,2013-12-17 01:11:00,
2013-12-16 20:16:00,5.3,-16.4,29.85,NW,315,5.6,5.6,35,0.00,,,0.00,VWS V14.01,2013-12-17 01:16:00,
2013-12-16 20:21:00,4.9,-16.8,29.88,NW,315,3.8,6.3,35,0.00,,,0.00,VWS V14.01,2013-12-17 01:21:00,
2013-12-16 20:25:00,4.7,-16.9,29.88,NW,315,4.9,7.6,35,0.00,,,0.00,VWS V14.01,2013-12-17 01:25:00,
2013-12-16 20:30:00,4.7,-16.9,29.88,NNW,338,5.6,5.6,35,0.00,,,0.00,VWS V14.01,2013-12-17 01:30:00,
2013-12-16 20:35:00,4.5,-17.1,29.88,NNW,338,4.9,7.6,35,0.00,,,0.00,VWS V14.01,2013-12-17 01:35:00,
2013-12-16 20:40:00,4.2,-17.4,29.88,NW,315,4.9,4.9,35,0.00,,,0.00,VWS V14.01,2013-12-17 01:40:00,
2013-12-16 20:45:00,3.1,-18.4,29.88,NW,315,6.5,6.5,35,0.00,,,0.00,VWS V14.01,2013-12-17 01:45:00,
2013-12-16 20:50:00,3.6,-17.9,29.91,NNW,338,2.2,4.0,35,0.00,,,0.00,VWS V14.01,2013-12-17 01:50:00,
2013-12-16 20:55:00,3.5,-18.0,29.91,NNW,338,1.1,3.1,35,0.00,,,0.00,VWS V14.01,2013-12-17 01:55:00,
2013-12-16 21:00:00,3.1,-18.4,29.91,NNW,338,2.5,2.5,35,0.00,,,0.00,VWS V14.01,2013-12-17 02:00:00,
2013-12-16 21:01:00,2.9,-18.5,29.91,NNW,338,2.0,2.7,35,0.00,,,0.00,VWS V14.01,2013-12-17 02:01:00,
2013-12-16 21:06:00,2.0,-19.3,29.91,NNW,338,1.3,2.2,35,0.00,,,0.00,VWS V14.01,2013-12-17 02:06:00,
2013-12-16 21:11:00,1.3,-20.0,29.91,NNW,338,3.4,3.6,35,0.00,,,0.00,VWS V14.01,2013-12-17 02:11:00,
2013-12-16 21:16:00,0.9,-20.3,29.91,NNW,338,3.4,3.8,35,0.00,,,0.00,VWS V14.01,2013-12-17 02:16:00,
2013-12-16 21:21:00,1.7,-19.6,29.91,NNW,338,3.6,4.3,35,0.00,,,0.00,VWS V14.01,2013-12-17 02:21:00,
2013-12-16 21:26:00,1.5,-19.8,29.91,NW,315,5.6,5.6,35,0.00,,,0.00,VWS V14.01,2013-12-17 02:26:00,
2013-12-16 21:30:00,1.5,-19.8,29.91,NW,315,5.6,6.0,35,0.00,,,0.00,VWS V14.01,2013-12-17 02:30:00,
2013-12-16 21:31:00,1.7,-19.6,29.91,NW,315,4.3,5.8,35,0.00,,,0.00,VWS V14.01,2013-12-17 02:31:00,
2013-12-16 21:36:00,1.8,-19.5,29.91,NNW,338,2.7,5.8,35,0.00,,,0.00,VWS V14.01,2013-12-17 02:36:00,
2013-12-16 21:41:00,1.8,-19.5,29.91,NNW,338,2.9,4.0,35,0.00,,,0.00,VWS V14.01,2013-12-17 02:41:00,
2013-12-16 21:46:00,1.5,-19.8,29.91,NNW,338,3.1,3.4,35,0.00,,,0.00,VWS V14.01,2013-12-17 02:46:00,
2013-12-16 21:51:00,1.3,-20.0,29.91,NNW,338,2.5,3.4,35,0.00,,,0.00,VWS V14.01,2013-12-17 02:51:00,
2013-12-16 21:56:00,0.9,-20.3,29.91,NNW,338,2.0,2.7,35,0.00,,,0.00,VWS V14.01,2013-12-17 02:56:00,
2013-12-16 22:00:00,0.8,-20.5,29.91,NNW,338,1.3,2.7,35,0.00,,,0.00,VWS V14.01,2013-12-17 03:00:00,
2013-12-16 22:01:00,0.6,-20.6,29.91,NNW,338,2.9,3.4,35,0.00,,,0.00,VWS V14.01,2013-12-17 03:01:00,
2013-12-16 22:06:00,0.6,-20.6,29.94,NNW,338,5.4,5.4,35,0.00,,,0.00,VWS V14.01,2013-12-17 03:06:00,
2013-12-16 22:11:00,0.9,-20.3,29.94,NNW,338,5.6,5.6,35,0.00,,,0.00,VWS V14.01,2013-12-17 03:11:00,
2013-12-16 22:16:00,1.3,-20.0,29.94,NNW,338,5.4,5.4,35,0.00,,,0.00,VWS V14.01,2013-12-17 03:16:00,
2013-12-16 22:21:00,0.9,-20.3,29.94,NNW,338,5.8,5.8,35,0.00,,,0.00,VWS V14.01,2013-12-17 03:21:00,
2013-12-16 22:26:00,0.9,-20.3,29.94,NNW,338,2.9,5.4,35,0.00,,,0.00,VWS V14.01,2013-12-17 03:26:00,
2013-12-16 22:30:00,0.9,-20.3,29.94,NNW,338,3.6,4.3,35,0.00,,,0.00,VWS V14.01,2013-12-17 03:30:00,
2013-12-16 22:31:00,0.8,-20.5,29.94,NNW,338,2.0,2.7,35,0.00,,,0.00,VWS V14.01,2013-12-17 03:31:00,
2013-12-16 22:36:00,0.0,-21.1,29.97,NNW,338,1.6,2.9,35,0.00,,,0.00,VWS V14.01,2013-12-17 03:36:00,
2013-12-16 22:41:00,0.0,-21.1,29.97,NNW,338,3.1,3.1,35,0.00,,,0.00,VWS V14.01,2013-12-17 03:41:00,
2013-12-16 22:46:00,-0.3,-21.4,29.97,NNW,338,2.9,2.9,35,0.00,,,0.00,VWS V14.01,2013-12-17 03:46:00,
2013-12-16 22:51:00,-1.4,-22.4,29.97,NNW,338,2.5,3.1,35,0.00,,,0.00,VWS V14.01,2013-12-17 03:51:00,
2013-12-16 22:56:00,-2.8,-23.7,29.97,NNW,338,0.0,0.0,35,0.00,,,0.00,VWS V14.01,2013-12-17 03:56:00,
2013-12-16 23:00:00,-3.2,-24.0,29.97,NNW,338,0.0,0.0,35,0.00,,,0.00,VWS V14.01,2013-12-17 04:00:00,
2013-12-16 23:01:00,-3.7,-24.5,29.97,NNW,338,0.0,0.0,35,0.00,,,0.00,VWS V14.01,2013-12-17 04:01:00,
2013-12-16 23:06:00,-4.5,-25.1,29.97,NNW,338,0.0,0.0,35,0.00,,,0.00,VWS V14.01,2013-12-17 04:06:00,
2013-12-16 23:11:00,-4.8,-25.5,29.97,NNW,338,0.0,0.0,35,0.00,,,0.00,VWS V14.01,2013-12-17 04:11:00,
2013-12-16 23:16:00,-5.5,-26.1,29.97,NNW,338,1.1,1.6,35,0.00,,,0.00,VWS V14.01,2013-12-17 04:16:00,
2013-12-16 23:21:00,-5.7,-26.3,29.97,NNW,338,0.0,0.0,35,0.00,,,0.00,VWS V14.01,2013-12-17 04:21:00,
2013-12-16 23:26:00,-6.1,-26.6,29.97,NNW,338,0.0,1.3,35,0.00,,,0.00,VWS V14.01,2013-12-17 04:26:00,
2013-12-16 23:30:00,-6.1,-26.6,29.97,NNW,338,2.5,2.9,35,0.00,,,0.00,VWS V14.01,2013-12-17 04:30:00,
2013-12-16 23:31:00,-7.5,-27.9,29.97,NNW,338,2.5,2.9,35,0.00,,,0.00,VWS V14.01,2013-12-17 04:31:00,
2013-12-16 23:36:00,-8.8,-29.0,29.97,NNW,338,2.5,2.5,35,0.00,,,0.00,VWS V14.01,2013-12-17 04:36:00,
2013-12-16 23:41:00,-9.3,-29.5,29.97,NNW,338,4.0,4.3,35,0.00,,,0.00,VWS V14.01,2013-12-17 04:41:00,
2013-12-16 23:46:00,-9.0,-29.2,29.97,NNW,338,2.7,4.3,35,0.00,,,0.00,VWS V14.01,2013-12-17 04:46:00,
2013-12-16 23:51:00,-9.0,-29.2,29.94,NNW,338,0.0,0.0,35,0.00,,,0.00,VWS V14.01,2013-12-17 04:51:00,
2013-12-16 23:56:00,-9.0,-29.2,29.94,NNW,338,1.3,1.3,35,0.00,,,0.00,VWS V14.01,2013-12-17 04:56:00,